sensor_id;sensor_type;location;lat;lon;timestamp;pressure;altitude;pressure_sealevel;temperature;humidity
7075;BME280;3578;51.568;6.932;2022-12-20T00:01:32;53554.72;;;-144.14;95.66
7075;BME280;3578;51.568;6.932;2022-12-20T00:04:03;53542.69;;;-144.14;95.64
7075;BME280;3578;51.568;6.932;2022-12-20T00:06:33;53550.69;;;-144.14;95.37
7075;BME280;3578;51.568;6.932;2022-12-20T00:09:03;53500.59;;;-144.14;95.36
7075;BME280;3578;51.568;6.932;2022-12-20T00:11:31;53534.66;;;-144.14;95.29
7075;BME280;3578;51.568;6.932;2022-12-20T00:13:59;53562.72;;;-144.14;94.98
7075;BME280;3578;51.568;6.932;2022-12-20T00:16:28;53532.66;;;-144.14;94.74
7075;BME280;3578;51.568;6.932;2022-12-20T00:18:59;53530.66;;;-144.14;94.55
7075;BME280;3578;51.568;6.932;2022-12-20T00:21:27;53532.66;;;-144.14;94.35
7075;BME280;3578;51.568;6.932;2022-12-20T00:23:55;53518.63;;;-144.14;94.08
7075;BME280;3578;51.568;6.932;2022-12-20T00:26:27;53554.72;;;-144.14;93.66
7075;BME280;3578;51.568;6.932;2022-12-20T00:28:56;53588.78;;;-144.14;93.52
7075;BME280;3578;51.568;6.932;2022-12-20T00:31:26;53590.78;;;-144.14;93.23
7075;BME280;3578;51.568;6.932;2022-12-20T00:33:56;53546.69;;;-144.14;93.06
7075;BME280;3578;51.568;6.932;2022-12-20T00:36:26;53578.75;;;-144.14;92.99
7075;BME280;3578;51.568;6.932;2022-12-20T00:38:56;53590.78;;;-144.14;92.78
7075;BME280;3578;51.568;6.932;2022-12-20T00:41:26;53594.78;;;-144.14;92.45
7075;BME280;3578;51.568;6.932;2022-12-20T00:43:53;53582.78;;;-144.14;92.62
7075;BME280;3578;51.568;6.932;2022-12-20T00:46:21;53570.75;;;-144.14;92.65
7075;BME280;3578;51.568;6.932;2022-12-20T00:48:49;53606.81;;;-144.14;92.46
7075;BME280;3578;51.568;6.932;2022-12-20T00:51:22;53586.78;;;-144.14;92.81
7075;BME280;3578;51.568;6.932;2022-12-20T00:53:51;53568.75;;;-144.14;92.93
7075;BME280;3578;51.568;6.932;2022-12-20T00:56:19;53536.66;;;-144.14;93.17
7075;BME280;3578;51.568;6.932;2022-12-20T00:58:47;53552.69;;;-144.14;93.33
7075;BME280;3578;51.568;6.932;2022-12-20T01:01:19;53586.78;;;-144.14;93.33
7075;BME280;3578;51.568;6.932;2022-12-20T01:03:47;53574.75;;;-144.14;93.07
7075;BME280;3578;51.568;6.932;2022-12-20T01:06:14;53520.63;;;-144.14;93.21
7075;BME280;3578;51.568;6.932;2022-12-20T01:08:43;53564.72;;;-144.14;93.12
7075;BME280;3578;51.568;6.932;2022-12-20T01:11:13;53558.72;;;-144.14;93.21
7075;BME280;3578;51.568;6.932;2022-12-20T01:13:43;53556.72;;;-144.14;93.42
7075;BME280;3578;51.568;6.932;2022-12-20T01:16:13;53556.72;;;-144.14;93.32
7075;BME280;3578;51.568;6.932;2022-12-20T01:18:41;53580.75;;;-144.14;93.05
7075;BME280;3578;51.568;6.932;2022-12-20T01:21:11;53560.72;;;-144.14;92.99
7075;BME280;3578;51.568;6.932;2022-12-20T01:23:39;53562.72;;;-144.14;93.05
7075;BME280;3578;51.568;6.932;2022-12-20T01:26:11;53554.72;;;-144.14;93.08
7075;BME280;3578;51.568;6.932;2022-12-20T01:28:41;53548.69;;;-144.14;93.31
7075;BME280;3578;51.568;6.932;2022-12-20T01:31:11;53546.69;;;-144.14;93.59
7075;BME280;3578;51.568;6.932;2022-12-20T01:33:39;53542.69;;;-144.14;93.68
7075;BME280;3578;51.568;6.932;2022-12-20T01:36:10;53498.59;;;-144.14;94.01
7075;BME280;3578;51.568;6.932;2022-12-20T01:38:38;53546.69;;;-144.14;94.22
7075;BME280;3578;51.568;6.932;2022-12-20T01:41:08;53518.63;;;-144.14;94.34
7075;BME280;3578;51.568;6.932;2022-12-20T01:43:50;53512.63;;;-144.14;94.54
7075;BME280;3578;51.568;6.932;2022-12-20T01:46:19;53554.72;;;-144.14;94.48
7075;BME280;3578;51.568;6.932;2022-12-20T01:48:50;53516.63;;;-144.14;94.41
7075;BME280;3578;51.568;6.932;2022-12-20T01:51:19;53534.66;;;-144.14;94.45
7075;BME280;3578;51.568;6.932;2022-12-20T01:53:48;53572.75;;;-144.14;94.15
7075;BME280;3578;51.568;6.932;2022-12-20T01:56:19;53554.72;;;-144.14;93.98
7075;BME280;3578;51.568;6.932;2022-12-20T01:58:46;53552.69;;;-144.14;93.60
7075;BME280;3578;51.568;6.932;2022-12-20T02:01:14;53586.78;;;-144.14;93.39
7075;BME280;3578;51.568;6.932;2022-12-20T02:03:41;53586.78;;;-144.14;93.12
7075;BME280;3578;51.568;6.932;2022-12-20T02:06:16;53552.69;;;-144.14;93.12
7075;BME280;3578;51.568;6.932;2022-12-20T02:08:46;53548.69;;;-144.14;93.44
7075;BME280;3578;51.568;6.932;2022-12-20T02:11:55;53568.75;;;-144.14;93.35
7075;BME280;3578;51.568;6.932;2022-12-20T02:14:43;53558.72;;;-144.14;93.30
7075;BME280;3578;51.568;6.932;2022-12-20T02:17:27;53582.78;;;-144.14;93.26
7075;BME280;3578;51.568;6.932;2022-12-20T02:29:36;53568.75;;;-144.14;93.74
7075;BME280;3578;51.568;6.932;2022-12-20T02:32:13;53584.78;;;-144.14;93.91
7075;BME280;3578;51.568;6.932;2022-12-20T02:34:43;53566.72;;;-144.14;93.87
7075;BME280;3578;51.568;6.932;2022-12-20T02:37:12;53594.78;;;-144.14;93.77
7075;BME280;3578;51.568;6.932;2022-12-20T02:39:41;53590.78;;;-144.14;93.80
7075;BME280;3578;51.568;6.932;2022-12-20T02:42:12;53562.72;;;-144.14;94.01
7075;BME280;3578;51.568;6.932;2022-12-20T02:44:47;53594.78;;;-144.14;94.28
7075;BME280;3578;51.568;6.932;2022-12-20T02:47:38;53558.72;;;-144.14;94.99
7075;BME280;3578;51.568;6.932;2022-12-20T02:50:08;53556.72;;;-144.14;95.61
7075;BME280;3578;51.568;6.932;2022-12-20T02:52:35;53534.66;;;-144.14;95.95
7075;BME280;3578;51.568;6.932;2022-12-20T02:55:05;53542.69;;;-144.14;96.78
7075;BME280;3578;51.568;6.932;2022-12-20T02:57:40;53528.66;;;-144.14;97.20
7075;BME280;3578;51.568;6.932;2022-12-20T03:00:11;53522.63;;;-144.14;97.40
7075;BME280;3578;51.568;6.932;2022-12-20T03:02:42;53506.59;;;-144.14;98.13
7075;BME280;3578;51.568;6.932;2022-12-20T03:05:28;53500.59;;;-144.14;98.12
7075;BME280;3578;51.568;6.932;2022-12-20T03:07:56;53462.50;;;-144.14;98.83
7075;BME280;3578;51.568;6.932;2022-12-20T03:10:23;53498.59;;;-144.14;99.41
7075;BME280;3578;51.568;6.932;2022-12-20T03:12:50;53450.50;;;-144.14;99.95
7075;BME280;3578;51.568;6.932;2022-12-20T03:15:18;53394.38;;;-144.14;100.00
7075;BME280;3578;51.568;6.932;2022-12-20T03:17:46;53378.34;;;-144.14;100.00
7075;BME280;3578;51.568;6.932;2022-12-20T03:20:13;53382.34;;;-144.14;100.00
7075;BME280;3578;51.568;6.932;2022-12-20T03:22:40;53386.34;;;-144.14;100.00
7075;BME280;3578;51.568;6.932;2022-12-20T03:25:08;53376.34;;;-144.14;100.00
7075;BME280;3578;51.568;6.932;2022-12-20T03:27:35;53326.22;;;-144.14;100.00
7075;BME280;3578;51.568;6.932;2022-12-20T03:30:03;53352.28;;;-144.14;100.00
7075;BME280;3578;51.568;6.932;2022-12-20T03:32:31;53362.31;;;-144.14;100.00
7075;BME280;3578;51.568;6.932;2022-12-20T03:34:59;53324.22;;;-144.14;100.00
7075;BME280;3578;51.568;6.932;2022-12-20T03:37:26;53318.22;;;-144.14;100.00
7075;BME280;3578;51.568;6.932;2022-12-20T03:39:53;53344.25;;;-144.14;100.00
7075;BME280;3578;51.568;6.932;2022-12-20T03:42:20;53316.22;;;-144.14;100.00
7075;BME280;3578;51.568;6.932;2022-12-20T03:44:48;53284.13;;;-144.14;100.00
7075;BME280;3578;51.568;6.932;2022-12-20T03:47:15;53282.13;;;-144.14;100.00
7075;BME280;3578;51.568;6.932;2022-12-20T03:49:41;53296.16;;;-144.14;100.00
7075;BME280;3578;51.568;6.932;2022-12-20T03:52:11;53246.06;;;-144.14;100.00
7075;BME280;3578;51.568;6.932;2022-12-20T03:54:38;53272.13;;;-144.14;100.00
7075;BME280;3578;51.568;6.932;2022-12-20T03:57:05;53278.13;;;-144.14;100.00
7075;BME280;3578;51.568;6.932;2022-12-20T03:59:32;53254.06;;;-144.14;100.00
7075;BME280;3578;51.568;6.932;2022-12-20T04:02:00;53264.09;;;-144.14;100.00
7075;BME280;3578;51.568;6.932;2022-12-20T04:04:27;53258.09;;;-144.14;100.00
7075;BME280;3578;51.568;6.932;2022-12-20T04:06:54;53262.09;;;-144.14;100.00
7075;BME280;3578;51.568;6.932;2022-12-20T04:09:23;53268.09;;;-144.14;100.00
7075;BME280;3578;51.568;6.932;2022-12-20T04:11:49;53282.13;;;-144.14;100.00
7075;BME280;3578;51.568;6.932;2022-12-20T04:14:16;53262.09;;;-144.14;100.00
7075;BME280;3578;51.568;6.932;2022-12-20T04:16:43;53228.03;;;-144.14;100.00
7075;BME280;3578;51.568;6.932;2022-12-20T04:19:10;53292.16;;;-144.14;100.00
7075;BME280;3578;51.568;6.932;2022-12-20T04:21:38;53306.19;;;-144.14;100.00
7075;BME280;3578;51.568;6.932;2022-12-20T04:24:05;53306.19;;;-144.14;100.00
7075;BME280;3578;51.568;6.932;2022-12-20T04:26:34;53274.13;;;-144.14;100.00
7075;BME280;3578;51.568;6.932;2022-12-20T04:29:00;53274.13;;;-144.14;100.00
7075;BME280;3578;51.568;6.932;2022-12-20T04:31:27;53256.09;;;-144.14;100.00
7075;BME280;3578;51.568;6.932;2022-12-20T04:33:54;53262.09;;;-144.14;100.00
7075;BME280;3578;51.568;6.932;2022-12-20T04:36:21;53254.06;;;-144.14;100.00
7075;BME280;3578;51.568;6.932;2022-12-20T04:38:48;53226.03;;;-144.14;100.00
7075;BME280;3578;51.568;6.932;2022-12-20T04:41:16;53264.09;;;-144.14;100.00
7075;BME280;3578;51.568;6.932;2022-12-20T04:43:50;53248.06;;;-144.14;100.00
7075;BME280;3578;51.568;6.932;2022-12-20T04:46:18;53254.06;;;-144.14;100.00
7075;BME280;3578;51.568;6.932;2022-12-20T04:48:45;53232.03;;;-144.14;100.00
7075;BME280;3578;51.568;6.932;2022-12-20T04:51:12;53272.13;;;-144.14;100.00
7075;BME280;3578;51.568;6.932;2022-12-20T04:53:38;53282.13;;;-144.14;100.00
7075;BME280;3578;51.568;6.932;2022-12-20T04:56:16;53278.13;;;-144.14;100.00
7075;BME280;3578;51.568;6.932;2022-12-20T04:58:44;53258.09;;;-144.14;100.00
7075;BME280;3578;51.568;6.932;2022-12-20T05:01:13;53270.13;;;-144.14;100.00
7075;BME280;3578;51.568;6.932;2022-12-20T05:03:40;53252.06;;;-144.14;100.00
7075;BME280;3578;51.568;6.932;2022-12-20T05:06:08;53224.03;;;-144.14;100.00
7075;BME280;3578;51.568;6.932;2022-12-20T05:08:35;53258.09;;;-144.14;100.00
7075;BME280;3578;51.568;6.932;2022-12-20T05:11:03;53260.09;;;-144.14;100.00
7075;BME280;3578;51.568;6.932;2022-12-20T05:13:30;53222.00;;;-144.14;100.00
7075;BME280;3578;51.568;6.932;2022-12-20T05:15:57;53226.03;;;-144.14;100.00
7075;BME280;3578;51.568;6.932;2022-12-20T05:18:26;53246.06;;;-144.14;100.00
7075;BME280;3578;51.568;6.932;2022-12-20T05:20:55;53222.00;;;-144.14;100.00
7075;BME280;3578;51.568;6.932;2022-12-20T05:23:40;53179.94;;;-144.14;100.00
7075;BME280;3578;51.568;6.932;2022-12-20T05:26:36;53205.97;;;-144.14;100.00
7075;BME280;3578;51.568;6.932;2022-12-20T05:29:03;53185.94;;;-144.14;100.00
7075;BME280;3578;51.568;6.932;2022-12-20T05:31:31;53187.94;;;-144.14;100.00
7075;BME280;3578;51.568;6.932;2022-12-20T05:33:59;53151.88;;;-144.14;100.00
7075;BME280;3578;51.568;6.932;2022-12-20T05:36:26;53175.91;;;-144.14;100.00
7075;BME280;3578;51.568;6.932;2022-12-20T05:38:53;53177.94;;;-144.14;100.00
7075;BME280;3578;51.568;6.932;2022-12-20T05:41:20;53153.88;;;-144.14;100.00
7075;BME280;3578;51.568;6.932;2022-12-20T05:43:47;53161.91;;;-144.14;100.00
7075;BME280;3578;51.568;6.932;2022-12-20T05:46:14;53222.00;;;-144.14;100.00
7075;BME280;3578;51.568;6.932;2022-12-20T05:48:41;53197.97;;;-144.14;100.00
7075;BME280;3578;51.568;6.932;2022-12-20T05:51:09;53193.97;;;-144.14;100.00
7075;BME280;3578;51.568;6.932;2022-12-20T05:53:36;53240.06;;;-144.14;100.00
7075;BME280;3578;51.568;6.932;2022-12-20T05:56:04;53210.00;;;-144.14;100.00
7075;BME280;3578;51.568;6.932;2022-12-20T05:58:31;53252.06;;;-144.14;100.00
7075;BME280;3578;51.568;6.932;2022-12-20T06:01:00;53234.03;;;-144.14;100.00
7075;BME280;3578;51.568;6.932;2022-12-20T06:03:27;53252.06;;;-144.14;100.00
7075;BME280;3578;51.568;6.932;2022-12-20T06:05:54;53272.13;;;-144.14;100.00
7075;BME280;3578;51.568;6.932;2022-12-20T06:08:23;53294.16;;;-144.14;100.00
7075;BME280;3578;51.568;6.932;2022-12-20T06:10:50;53280.13;;;-144.14;100.00
7075;BME280;3578;51.568;6.932;2022-12-20T06:13:17;53282.13;;;-144.14;100.00
7075;BME280;3578;51.568;6.932;2022-12-20T06:15:44;53310.19;;;-144.14;100.00
7075;BME280;3578;51.568;6.932;2022-12-20T06:18:11;53300.19;;;-144.14;100.00
7075;BME280;3578;51.568;6.932;2022-12-20T06:20:39;53288.16;;;-144.14;100.00
7075;BME280;3578;51.568;6.932;2022-12-20T06:23:06;53338.25;;;-144.14;100.00
7075;BME280;3578;51.568;6.932;2022-12-20T06:25:35;53342.25;;;-144.14;100.00
7075;BME280;3578;51.568;6.932;2022-12-20T06:28:04;53364.31;;;-144.14;100.00
7075;BME280;3578;51.568;6.932;2022-12-20T06:30:32;53358.28;;;-144.14;100.00
7075;BME280;3578;51.568;6.932;2022-12-20T06:32:59;53358.28;;;-144.14;100.00
7075;BME280;3578;51.568;6.932;2022-12-20T06:35:26;53382.34;;;-144.14;100.00
7075;BME280;3578;51.568;6.932;2022-12-20T06:37:53;53352.28;;;-144.14;100.00
7075;BME280;3578;51.568;6.932;2022-12-20T06:40:20;53352.28;;;-144.14;100.00
7075;BME280;3578;51.568;6.932;2022-12-20T06:42:49;53370.31;;;-144.14;100.00
7075;BME280;3578;51.568;6.932;2022-12-20T06:45:16;53396.38;;;-144.14;100.00
7075;BME280;3578;51.568;6.932;2022-12-20T06:47:44;53370.31;;;-144.14;100.00
7075;BME280;3578;51.568;6.932;2022-12-20T06:50:12;53370.31;;;-144.14;100.00
7075;BME280;3578;51.568;6.932;2022-12-20T06:52:38;53384.34;;;-144.14;100.00
7075;BME280;3578;51.568;6.932;2022-12-20T06:55:06;53444.47;;;-144.14;99.88
7075;BME280;3578;51.568;6.932;2022-12-20T06:57:33;53460.50;;;-144.14;99.53
7075;BME280;3578;51.568;6.932;2022-12-20T07:00:03;53454.50;;;-144.14;99.28
7075;BME280;3578;51.568;6.932;2022-12-20T07:02:30;53486.56;;;-144.14;99.21
7075;BME280;3578;51.568;6.932;2022-12-20T07:04:56;53434.44;;;-144.14;99.18
7075;BME280;3578;51.568;6.932;2022-12-20T07:07:23;53474.53;;;-144.14;99.27
7075;BME280;3578;51.568;6.932;2022-12-20T07:09:50;53442.47;;;-144.14;99.13
7075;BME280;3578;51.568;6.932;2022-12-20T07:12:18;53442.47;;;-144.14;99.15
7075;BME280;3578;51.568;6.932;2022-12-20T07:14:45;53422.44;;;-144.14;98.88
7075;BME280;3578;51.568;6.932;2022-12-20T07:17:13;53450.50;;;-144.14;99.01
7075;BME280;3578;51.568;6.932;2022-12-20T07:19:41;53488.56;;;-144.14;98.70
7075;BME280;3578;51.568;6.932;2022-12-20T07:22:08;53492.56;;;-144.14;98.23
7075;BME280;3578;51.568;6.932;2022-12-20T07:24:35;53490.56;;;-144.14;98.20
7075;BME280;3578;51.568;6.932;2022-12-20T07:27:02;53498.59;;;-144.14;97.99
7075;BME280;3578;51.568;6.932;2022-12-20T07:29:29;53524.66;;;-144.14;97.42
7075;BME280;3578;51.568;6.932;2022-12-20T07:31:56;53540.69;;;-144.14;97.35
7075;BME280;3578;51.568;6.932;2022-12-20T07:34:24;53518.63;;;-144.14;97.47
7075;BME280;3578;51.568;6.932;2022-12-20T07:36:52;53526.66;;;-144.14;97.28
7075;BME280;3578;51.568;6.932;2022-12-20T07:39:19;53514.63;;;-144.14;97.21
7075;BME280;3578;51.568;6.932;2022-12-20T07:41:46;53490.56;;;-144.14;97.49
7075;BME280;3578;51.568;6.932;2022-12-20T07:44:12;53522.63;;;-144.14;97.62
7075;BME280;3578;51.568;6.932;2022-12-20T07:46:39;53490.56;;;-144.14;97.58
7075;BME280;3578;51.568;6.932;2022-12-20T07:49:07;53502.59;;;-144.14;97.92
7075;BME280;3578;51.568;6.932;2022-12-20T07:51:39;53514.63;;;-144.14;97.94
7075;BME280;3578;51.568;6.932;2022-12-20T07:54:12;53510.63;;;-144.14;97.84
7075;BME280;3578;51.568;6.932;2022-12-20T07:56:44;53526.66;;;-144.14;97.79
7075;BME280;3578;51.568;6.932;2022-12-20T07:59:15;53506.59;;;-144.14;97.69
7075;BME280;3578;51.568;6.932;2022-12-20T08:01:45;53500.59;;;-144.14;97.53
7075;BME280;3578;51.568;6.932;2022-12-20T08:04:17;53492.56;;;-144.14;97.38
7075;BME280;3578;51.568;6.932;2022-12-20T08:06:47;53526.66;;;-144.14;97.47
7075;BME280;3578;51.568;6.932;2022-12-20T08:09:15;53512.63;;;-144.14;97.40
7075;BME280;3578;51.568;6.932;2022-12-20T08:11:45;53510.63;;;-144.14;97.51
7075;BME280;3578;51.568;6.932;2022-12-20T08:14:13;53524.66;;;-144.14;97.51
7075;BME280;3578;51.568;6.932;2022-12-20T08:16:41;53518.63;;;-144.14;97.32
7075;BME280;3578;51.568;6.932;2022-12-20T08:19:08;53514.63;;;-144.14;97.22
7075;BME280;3578;51.568;6.932;2022-12-20T08:21:35;53524.66;;;-144.14;97.06
7075;BME280;3578;51.568;6.932;2022-12-20T08:24:05;53574.75;;;-144.14;96.95
7075;BME280;3578;51.568;6.932;2022-12-20T08:26:37;53578.75;;;-144.14;96.48
7075;BME280;3578;51.568;6.932;2022-12-20T08:29:05;53582.78;;;-144.14;96.00
7075;BME280;3578;51.568;6.932;2022-12-20T08:31:32;53602.81;;;-144.14;95.50
7075;BME280;3578;51.568;6.932;2022-12-20T08:33:59;53578.75;;;-144.14;95.64
7075;BME280;3578;51.568;6.932;2022-12-20T08:36:26;53604.81;;;-144.14;95.92
7075;BME280;3578;51.568;6.932;2022-12-20T08:38:53;53600.81;;;-144.14;95.80
7075;BME280;3578;51.568;6.932;2022-12-20T08:41:21;53594.78;;;-144.14;95.78
7075;BME280;3578;51.568;6.932;2022-12-20T08:43:48;53582.78;;;-144.14;95.83
7075;BME280;3578;51.568;6.932;2022-12-20T08:46:15;53614.84;;;-144.14;95.66
7075;BME280;3578;51.568;6.932;2022-12-20T08:48:42;53606.81;;;-144.14;95.51
7075;BME280;3578;51.568;6.932;2022-12-20T08:51:10;53632.88;;;-144.14;95.47
7075;BME280;3578;51.568;6.932;2022-12-20T08:53:37;53594.78;;;-144.14;95.07
7075;BME280;3578;51.568;6.932;2022-12-20T08:56:06;53616.84;;;-144.14;95.09
7075;BME280;3578;51.568;6.932;2022-12-20T08:58:36;53658.94;;;-144.14;95.25
7075;BME280;3578;51.568;6.932;2022-12-20T09:01:05;53662.94;;;-144.14;95.13
7075;BME280;3578;51.568;6.932;2022-12-20T09:03:33;53646.91;;;-144.14;95.07
7075;BME280;3578;51.568;6.932;2022-12-20T09:06:04;53634.88;;;-144.14;95.22
7075;BME280;3578;51.568;6.932;2022-12-20T09:08:32;53634.88;;;-144.14;94.92
7075;BME280;3578;51.568;6.932;2022-12-20T09:11:03;53638.88;;;-144.14;94.37
7075;BME280;3578;51.568;6.932;2022-12-20T09:13:31;53664.94;;;-144.14;94.30
7075;BME280;3578;51.568;6.932;2022-12-20T09:16:00;53650.91;;;-144.14;94.27
7075;BME280;3578;51.568;6.932;2022-12-20T09:18:28;53680.97;;;-144.14;94.26
7075;BME280;3578;51.568;6.932;2022-12-20T09:20:55;53644.91;;;-144.14;93.90
7075;BME280;3578;51.568;6.932;2022-12-20T09:23:24;53660.94;;;-144.14;93.71
7075;BME280;3578;51.568;6.932;2022-12-20T09:25:51;53723.06;;;-144.14;93.25
7075;BME280;3578;51.568;6.932;2022-12-20T09:28:18;53699.03;;;-144.14;93.16
7075;BME280;3578;51.568;6.932;2022-12-20T09:30:45;53707.03;;;-144.14;92.97
7075;BME280;3578;51.568;6.932;2022-12-20T09:33:13;53759.16;;;-144.14;93.03
7075;BME280;3578;51.568;6.932;2022-12-20T09:35:44;53755.13;;;-144.14;92.53
7075;BME280;3578;51.568;6.932;2022-12-20T09:38:11;53769.16;;;-144.14;92.69
7075;BME280;3578;51.568;6.932;2022-12-20T09:40:44;53743.13;;;-144.14;92.44
7075;BME280;3578;51.568;6.932;2022-12-20T09:43:17;53741.09;;;-144.14;92.16
7075;BME280;3578;51.568;6.932;2022-12-20T09:45:49;53745.13;;;-144.14;92.22
7075;BME280;3578;51.568;6.932;2022-12-20T09:48:21;53763.16;;;-144.14;92.05
7075;BME280;3578;51.568;6.932;2022-12-20T09:50:58;53775.19;;;-144.14;91.80
7075;BME280;3578;51.568;6.932;2022-12-20T09:53:40;53757.16;;;-144.14;91.88
7075;BME280;3578;51.568;6.932;2022-12-20T09:56:16;53771.19;;;-144.14;92.08
7075;BME280;3578;51.568;6.932;2022-12-20T09:58:58;53757.16;;;-144.14;92.67
7075;BME280;3578;51.568;6.932;2022-12-20T10:01:28;53741.09;;;-144.14;93.00
7075;BME280;3578;51.568;6.932;2022-12-20T10:04:02;53725.06;;;-144.14;93.17
7075;BME280;3578;51.568;6.932;2022-12-20T10:06:41;53769.16;;;-144.14;93.58
7075;BME280;3578;51.568;6.932;2022-12-20T10:09:27;53749.13;;;-144.14;94.49
7075;BME280;3578;51.568;6.932;2022-12-20T10:12:13;53721.06;;;-144.14;94.70
7075;BME280;3578;51.568;6.932;2022-12-20T10:15:08;53731.09;;;-144.14;95.00
7075;BME280;3578;51.568;6.932;2022-12-20T10:17:53;53654.91;;;-144.14;95.51
7075;BME280;3578;51.568;6.932;2022-12-20T10:20:39;53711.03;;;-144.14;95.11
7075;BME280;3578;51.568;6.932;2022-12-20T10:23:13;53689.00;;;-144.14;95.40
7075;BME280;3578;51.568;6.932;2022-12-20T10:25:43;53747.13;;;-144.14;95.20
7075;BME280;3578;51.568;6.932;2022-12-20T10:28:14;53670.97;;;-144.14;94.75
7075;BME280;3578;51.568;6.932;2022-12-20T10:30:42;53733.09;;;-144.14;94.65
7075;BME280;3578;51.568;6.932;2022-12-20T10:33:17;53707.03;;;-144.14;94.95
7075;BME280;3578;51.568;6.932;2022-12-20T10:35:47;53729.09;;;-144.14;94.73
7075;BME280;3578;51.568;6.932;2022-12-20T10:38:16;53767.16;;;-144.14;93.95
7075;BME280;3578;51.568;6.932;2022-12-20T10:40:45;53775.19;;;-144.14;93.74
7075;BME280;3578;51.568;6.932;2022-12-20T10:43:18;53731.09;;;-144.14;93.86
7075;BME280;3578;51.568;6.932;2022-12-20T10:45:56;53737.09;;;-144.14;93.76
7075;BME280;3578;51.568;6.932;2022-12-20T10:48:35;53723.06;;;-144.14;94.40
7075;BME280;3578;51.568;6.932;2022-12-20T10:51:15;53767.16;;;-144.14;94.72
7075;BME280;3578;51.568;6.932;2022-12-20T10:53:52;53723.06;;;-144.14;95.12
7075;BME280;3578;51.568;6.932;2022-12-20T10:56:22;53721.06;;;-144.14;94.96
7075;BME280;3578;51.568;6.932;2022-12-20T10:58:55;53743.13;;;-144.14;94.77
7075;BME280;3578;51.568;6.932;2022-12-20T11:01:27;53703.03;;;-144.14;94.94
7075;BME280;3578;51.568;6.932;2022-12-20T11:03:58;53759.16;;;-144.14;94.19
7075;BME280;3578;51.568;6.932;2022-12-20T11:06:41;53749.13;;;-144.14;94.51
7075;BME280;3578;51.568;6.932;2022-12-20T11:09:26;53743.13;;;-144.14;94.54
7075;BME280;3578;51.568;6.932;2022-12-20T11:11:59;53769.16;;;-144.14;94.19
7075;BME280;3578;51.568;6.932;2022-12-20T11:14:27;53789.22;;;-144.14;94.33
7075;BME280;3578;51.568;6.932;2022-12-20T11:16:56;53783.19;;;-144.14;93.82
7075;BME280;3578;51.568;6.932;2022-12-20T11:19:46;53767.16;;;-144.14;93.92
7075;BME280;3578;51.568;6.932;2022-12-20T11:22:30;53759.16;;;-144.14;93.87
7075;BME280;3578;51.568;6.932;2022-12-20T11:25:16;53743.13;;;-144.14;93.86
7075;BME280;3578;51.568;6.932;2022-12-20T11:27:55;53763.16;;;-144.14;93.82
7075;BME280;3578;51.568;6.932;2022-12-20T11:30:31;53753.13;;;-144.14;93.47
7075;BME280;3578;51.568;6.932;2022-12-20T11:33:33;53757.16;;;-144.14;93.44
7075;BME280;3578;51.568;6.932;2022-12-20T11:36:08;53751.13;;;-144.14;93.28
7075;BME280;3578;51.568;6.932;2022-12-20T11:38:43;53731.09;;;-144.14;93.51
7075;BME280;3578;51.568;6.932;2022-12-20T11:41:20;53741.09;;;-144.14;93.55
7075;BME280;3578;51.568;6.932;2022-12-20T11:44:05;53771.19;;;-144.14;93.57
7075;BME280;3578;51.568;6.932;2022-12-20T11:46:47;53743.13;;;-144.14;93.76
7075;BME280;3578;51.568;6.932;2022-12-20T11:49:45;53759.16;;;-144.14;93.76
7075;BME280;3578;51.568;6.932;2022-12-20T11:52:26;53739.09;;;-144.14;94.16
7075;BME280;3578;51.568;6.932;2022-12-20T11:55:06;53761.16;;;-144.14;94.46
7075;BME280;3578;51.568;6.932;2022-12-20T11:57:42;53749.13;;;-144.14;94.33
7075;BME280;3578;51.568;6.932;2022-12-20T12:00:14;53767.16;;;-144.14;94.21
7075;BME280;3578;51.568;6.932;2022-12-20T12:02:47;53761.16;;;-144.14;94.13
7075;BME280;3578;51.568;6.932;2022-12-20T12:05:20;53761.16;;;-144.14;94.00
7075;BME280;3578;51.568;6.932;2022-12-20T12:07:54;53777.19;;;-144.14;93.94
7075;BME280;3578;51.568;6.932;2022-12-20T12:10:26;53785.22;;;-144.14;93.47
7075;BME280;3578;51.568;6.932;2022-12-20T12:13:02;53815.28;;;-144.14;93.50
7075;BME280;3578;51.568;6.932;2022-12-20T12:15:34;53811.25;;;-144.14;93.23
7075;BME280;3578;51.568;6.932;2022-12-20T12:18:08;53811.25;;;-144.14;92.77
7075;BME280;3578;51.568;6.932;2022-12-20T12:20:47;53831.31;;;-144.14;92.90
7075;BME280;3578;51.568;6.932;2022-12-20T12:23:23;53823.28;;;-144.14;92.92
7075;BME280;3578;51.568;6.932;2022-12-20T12:25:53;53827.31;;;-144.14;92.48
7075;BME280;3578;51.568;6.932;2022-12-20T12:28:20;53837.31;;;-144.14;92.41
7075;BME280;3578;51.568;6.932;2022-12-20T12:30:56;53831.31;;;-144.14;92.11
7075;BME280;3578;51.568;6.932;2022-12-20T12:33:29;53779.19;;;-144.14;92.13
7075;BME280;3578;51.568;6.932;2022-12-20T12:36:37;53831.31;;;-144.14;92.16
7075;BME280;3578;51.568;6.932;2022-12-20T12:42:57;53861.38;;;-144.14;91.69
7075;BME280;3578;51.568;6.932;2022-12-20T12:45:31;53849.34;;;-144.14;91.71
7075;BME280;3578;51.568;6.932;2022-12-20T12:48:04;53881.41;;;-144.14;91.43
7075;BME280;3578;51.568;6.932;2022-12-20T12:50:38;53841.34;;;-144.14;91.23
7075;BME280;3578;51.568;6.932;2022-12-20T12:53:15;53849.34;;;-144.14;91.88
7075;BME280;3578;51.568;6.932;2022-12-20T12:55:45;53851.34;;;-144.14;91.87
7075;BME280;3578;51.568;6.932;2022-12-20T12:58:33;53863.38;;;-144.14;91.76
7075;BME280;3578;51.568;6.932;2022-12-20T13:01:04;53877.41;;;-144.14;91.42
7075;BME280;3578;51.568;6.932;2022-12-20T13:04:08;53881.41;;;-144.14;90.92
7075;BME280;3578;51.568;6.932;2022-12-20T13:07:24;53899.47;;;-144.14;90.86
7075;BME280;3578;51.568;6.932;2022-12-20T13:09:52;53867.38;;;-144.14;91.64
7075;BME280;3578;51.568;6.932;2022-12-20T13:12:56;53833.31;;;-144.14;93.37
7075;BME280;3578;51.568;6.932;2022-12-20T13:15:52;53799.25;;;-144.14;95.82
7075;BME280;3578;51.568;6.932;2022-12-20T13:18:30;53759.16;;;-144.14;97.57
7075;BME280;3578;51.568;6.932;2022-12-20T13:21:31;53682.97;;;-144.14;99.57
7075;BME280;3578;51.568;6.932;2022-12-20T13:24:49;53652.91;;;-144.14;100.00
7075;BME280;3578;51.568;6.932;2022-12-20T13:27:32;53606.81;;;-144.14;100.00
7075;BME280;3578;51.568;6.932;2022-12-20T13:30:27;53558.72;;;-144.14;100.00
7075;BME280;3578;51.568;6.932;2022-12-20T13:33:22;53508.59;;;-144.14;100.00
7075;BME280;3578;51.568;6.932;2022-12-20T13:36:03;53534.66;;;-144.14;100.00